Аэропорт: Львов имени Даниила Галицкого. Львов

ICAO: UKLL

METAR:
2019/03/26 13:00
UKLL 261300Z 28007MPS 250V310 9999 BKN040 05/M02 Q1016 R31/CLRD// NOSIG
METAR:
2019/03/26 12:15
TAF UKLL 261107Z 2612/2712 29006G12MPS 9999 BKN010 TX05/2613Z TN00/2703Z 
      TEMPO 2612/2616 28009G14MPS 2100 -SHRASN BKN007 BKN020CB 
      BECMG 2616/2617 2100 BR BKN007 
      TEMPO 2617/2624 27010G18MPS 0800 +SHRASN BKN002 BKN017CB 
      TEMPO 2700/2712 32009G14MPS